x

West Orca Bay - 8nm Nw Of Hinchinbrook Is , Ak (46060) Wave Buoy

1:50am - Sat 23rd May 2015 All times are AKDT. -8 hours from GMT.

  • Sig Wave height 1.3ft
  • Swell Direction
  • Peak Period 9s
  • Average Period 4s
  • Wind
    11mph
  • Sea Temp 50°f
  • Air Temp 48°f
  • Sea Pressure 1021.7mb
  • West Orca Bay - 8nm Nw Of Hinchinbrook  Is , Ak
  • West Orca Bay - 8nm Nw Of Hinchinbrook  Is , Ak

More Historic Weather Station data

Upgrade to MSW Pro to gain access to the past 30 days of data for over 8000 Wavebouys and Weather Stations around the globe.

Join Pro

Comparision Forecast

View Surf forecast
   
Sat 05/23 1:50am 1.3ft 9s 4s 11
mph
1021.7mb 50f 48f
12:50am 1.6ft 9s 4s 9 11 mph 1021.5mb 50f 48f
Fri 05/22 11:50pm 1.3ft 9s 4s 11
mph
1021.5mb 50f 48f
10:50pm 1.3ft 9s 4s 9 11 mph 1021.3mb 50f 49f
9:50pm 1.3ft 10s 4s 9 11 mph 1021.2mb 50f 49f
8:50pm 1.3ft 9s 4s 9
mph
1020.7mb 51f 50f
7:50pm 1ft 9s 4s 7 9 mph 1020.8mb 52f 51f
6:50pm 1ft 10s 4s 9
mph
1020.9mb 52f 50f
5:50pm 1ft 10s 4s 9
mph
1020.9mb 52f 50f
4:50pm 1ft 9s 4s 4 7 mph 1021.4mb 52f 50f
3:50pm 1ft 8s 5s 7
mph
1021.7mb 51f 49f
2:50pm 1ft 8s 5s 7 9 mph 1022.1mb 51f 46f
1:50pm 1ft 9s 4s 4 7 mph 1022.2mb 51f 46f
12:50pm 1ft 9s 4s 4 7 mph 1022.3mb 51f 46f
11:50am 1ft 9s 4s 4
mph
1022.4mb 50f 46f
10:50am 1.3ft 10s 4s 2 4 mph 1022.4mb 50f 46f
9:50am 1.3ft 10s 4s 4
mph
1022.4mb 50f 46f
8:50am 1.3ft 4s 4s 9 11 mph 1022.3mb 50f 46f
7:50am 1.3ft 10s 4s 7 9 mph 1022.3mb 50f 45f
6:50am 1.6ft 4s 4s 9 11 mph 1022mb 50f 45f
5:50am 1.3ft 4s 4s 11 13 mph 1022.1mb 50f 47f
4:50am 1.6ft 4s 4s 11
mph
1022mb 50f 48f
3:50am 1.6ft 3s 4s 11 13 mph 1021.9mb 50f 48f
2:50am 1.6ft 4s 4s 11 13 mph 1021.9mb 51f 48f
1:50am 1.6ft 3s 4s 11 13 mph 1021.8mb 51f 48f
12:50am 1.6ft 3s 4s 11 13 mph 1022mb 51f 49f
Thu 05/21 11:50pm 1.6ft 3s 4s 11 13 mph 1021.9mb 51f 49f
10:50pm 1.3ft 10s 4s 11
mph
1021.6mb 52f 50f
9:50pm 1.3ft 10s 5s 9 11 mph 1021.7mb 51f 49f
8:50pm 1.3ft 8s 5s 9
mph
1021.6mb 51f 50f
7:50pm 1.3ft 10s 5s 7
mph
1021.5mb 52f 51f
6:50pm 1.3ft 10s 7s 9 11 mph 1021.7mb 52f 51f
5:50pm 1ft 10s 7s 7 9 mph 1021.9mb 52f 51f
4:50pm 1ft 10s 7s 9
mph
1022.1mb 52f 51f
3:50pm 1ft 10s 7s 7
mph
1022.4mb 52f 50f
2:50pm 1ft 10s 7s 7
mph
1022.6mb 53f 50f
1:50pm 0.7ft  -  6s 4
mph
1022.8mb 53f 49f
12:50pm 0.7ft  -  5s 2 4 mph 1023.1mb 52f 49f
11:50am 1ft 7s 5s  -  2 mph 1023.2mb 52f 49f
10:50am 1ft 8s 5s 2
mph
1023.3mb 51f 48f
9:50am 1ft 8s 5s 7
mph
1023.2mb 51f 48f
8:50am 1ft 8s 5s 7 9 mph 1023.1mb 50f 48f
7:50am 1ft 8s 4s 7 9 mph 1022.9mb 50f 48f
6:50am 1ft 8s 5s 7 9 mph 1022.7mb 50f 48f
5:50am 1ft 8s 4s 7
mph
1022.6mb 50f 47f
4:50am 1ft 8s 4s 7
mph
1022.5mb 50f 47f
3:50am 1ft 14s 4s 4
mph
1022.6mb 49f 47f
2:50am 1ft 7s 4s 4
mph
1022.9mb 49f 48f
1:50am 1ft 7s 4s 7
mph
1023mb 50f 48f
12:50am 1ft 3s 4s 9 11 mph 1022.9mb 50f 48f
Wed 05/20 11:50pm  -   -   -  7
mph
1022.9mb 50f 49f
10:50pm 1.3ft 3s 3s 11 16 mph 1022.8mb 50f 49f
9:50pm 1.3ft 7s 4s 13
mph
1022.7mb 51f 48f
8:50pm 1ft 7s 4s 11 13 mph 1022.6mb 50f 48f
7:50pm 1ft 8s 4s 9 11 mph 1022.7mb 52f 49f
6:50pm 1ft 14s 5s 7 9 mph 1023.1mb 52f 49f
5:50pm 1ft 7s 5s 4 7 mph 1023.3mb 52f 49f
4:50pm 0.7ft  -  6s 2 4 mph 1023.7mb 52f 49f
3:50pm 0.7ft  -  5s 2 4 mph 1023.9mb 51f 49f
2:50pm 0.7ft  -  6s 2 4 mph 1024.1mb 51f 49f
1:50pm 0.7ft  -  5s 2 4 mph 1024.1mb 51f 49f
12:50pm 0.7ft  -  5s 2 4 mph 1024.5mb 51f 49f
11:50am 1ft 7s 4s 4 7 mph 1024.8mb 50f 48f
10:50am 1ft 7s 4s 9 11 mph 1024.9mb 50f 48f
9:50am 1ft 7s 4s 9
mph
1024.9mb 50f 47f
8:50am 1ft 14s 5s 9
mph
1024.9mb 50f 47f
7:50am 1ft 8s 4s 7
mph
1024.8mb 50f 47f
6:50am 1ft 8s 4s 7 9 mph 1024.6mb 50f 47f
5:50am 1ft 8s 4s 7 9 mph 1024.5mb 50f 47f
4:50am 1ft 7s 4s 9 11 mph 1024.4mb 50f 47f
3:50am 1ft 3s 4s 7 9 mph 1024.7mb 50f 47f
2:50am 1ft 3s 3s 7 9 mph 1024.7mb 50f 48f
1:50am 1ft 14s 4s 11 13 mph 1024.9mb 50f 48f
12:50am 1.3ft 12s 4s 9 11 mph 1024.6mb 51f 48f
Tue 05/19 11:50pm 1.3ft 14s 4s 9 11 mph 1024.4mb 51f 48f
10:50pm 1.3ft 15s 4s 9
mph
1024.3mb 50f 48f
9:50pm 1ft 15s 4s 11 13 mph 1024.5mb 51f 48f
8:50pm 1ft 10s 4s 9 11 mph 1024.7mb 50f 48f
7:50pm 1ft 15s 4s 9 11 mph 1025.2mb 51f 48f
6:50pm 1ft 15s 4s 11 13 mph 1025.3mb 51f 48f
5:50pm 1ft 8s 5s 9 11 mph 1025.1mb 50f 48f
4:50pm 1ft 8s 4s 7 9 mph 1024.7mb 49f 48f
3:50pm 1ft 7s 4s 7 9 mph 1024.8mb 50f 48f
2:50pm 1ft 9s 4s 9
mph
1024.8mb 50f 48f
1:50pm 1ft 15s 4s 7 9 mph 1024.6mb 50f 48f
12:50pm 1ft 3s 4s 7 9 mph 1024.6mb 49f 48f
11:50am 1ft 3s 3s 9 11 mph 1024.5mb 50f 47f